createdAt,value
2018-05-06T00:00:08.106Z,76.10
2018-05-06T00:02:35.639Z,76.70
2018-05-06T00:05:03.130Z,78.00
2018-05-06T00:07:31.454Z,78.50
2018-05-06T00:09:58.942Z,78.40
2018-05-06T00:12:26.426Z,78.10
2018-05-06T00:14:54.688Z,79.00
2018-05-06T00:17:22.254Z,79.00
2018-05-06T00:19:50.508Z,79.60
2018-05-06T00:22:17.995Z,79.50
2018-05-06T00:24:45.511Z,79.70
2018-05-06T00:27:13.002Z,79.90
2018-05-06T00:29:40.483Z,79.90
2018-05-06T00:32:08.770Z,79.80
2018-05-06T00:34:36.306Z,79.70
2018-05-06T00:37:03.752Z,79.80
2018-05-06T00:39:31.306Z,80.30
2018-05-06T00:41:58.792Z,80.20
2018-05-06T00:44:26.278Z,80.20
2018-05-06T00:46:53.798Z,80.40
2018-05-06T00:49:21.330Z,80.50
2018-05-06T00:51:48.814Z,80.60
2018-05-06T00:57:18.847Z,80.30
2018-05-06T00:59:46.398Z,80.30
2018-05-06T01:02:13.894Z,80.30
2018-05-06T01:04:41.387Z,80.30
2018-05-06T01:07:08.914Z,80.50
2018-05-06T01:09:37.174Z,81.50
2018-05-06T01:12:04.661Z,80.70
2018-05-06T01:14:32.220Z,80.60
2018-05-06T01:17:00.476Z,80.00
2018-05-06T01:19:27.974Z,80.00
2018-05-06T01:21:55.539Z,80.10
2018-05-06T01:24:23.033Z,80.50
2018-05-06T01:26:50.534Z,80.80
2018-05-06T01:29:18.060Z,80.90
2018-05-06T01:31:45.551Z,81.20
2018-05-06T01:34:13.048Z,81.50
2018-05-06T01:36:40.573Z,81.90
2018-05-06T01:39:08.832Z,82.60
2018-05-06T01:41:36.320Z,83.00
2018-05-06T01:44:03.906Z,83.50
2018-05-06T01:46:31.399Z,83.80
2018-05-06T01:48:58.893Z,83.60
2018-05-06T01:51:26.432Z,83.60
2018-05-06T01:53:53.918Z,84.00
2018-05-06T01:56:21.402Z,84.10
2018-05-06T01:58:48.914Z,84.30
2018-05-06T02:01:16.410Z,84.40
2018-05-06T02:03:44.670Z,84.10
2018-05-06T02:06:12.234Z,84.10
2018-05-06T02:08:40.511Z,83.50
2018-05-06T02:11:08.009Z,83.30
2018-05-06T02:13:35.596Z,82.80
2018-05-06T02:16:03.086Z,82.50
2018-05-06T02:18:30.574Z,82.90
2018-05-06T02:20:58.109Z,83.80
2018-05-06T02:23:25.599Z,83.40
2018-05-06T02:25:53.082Z,83.70
2018-05-06T02:28:20.594Z,84.00
2018-05-06T02:30:48.863Z,84.10
2018-05-06T02:33:16.351Z,83.90
2018-05-06T02:35:43.891Z,84.10
2018-05-06T02:38:11.388Z,84.30
2018-05-06T02:40:38.879Z,84.00
2018-05-06T02:43:06.400Z,83.60
2018-05-06T02:45:33.891Z,83.80
2018-05-06T02:48:01.375Z,84.40
2018-05-06T02:50:28.895Z,84.40
2018-05-06T02:52:59.652Z,84.10
2018-05-06T02:55:27.138Z,84.30
2018-05-06T02:57:54.694Z,84.10
2018-05-06T03:00:22.174Z,84.10
2018-05-06T03:02:50.434Z,84.60
2018-05-06T03:05:17.964Z,84.40
2018-05-06T03:07:45.446Z,84.50
2018-05-06T03:10:12.931Z,84.80
2018-05-06T03:12:41.210Z,85.00
2018-05-06T03:21:52.103Z,84.90
2018-05-06T03:24:19.602Z,84.60
2018-05-06T03:26:47.859Z,85.70
2018-05-06T03:29:15.386Z,85.70
2018-05-06T03:31:42.878Z,85.70
2018-05-06T03:34:10.367Z,86.10
2018-05-06T03:36:38.684Z,86.60
2018-05-06T03:39:06.158Z,86.60
2018-05-06T03:41:33.649Z,86.60
2018-05-06T03:44:01.965Z,86.40
2018-05-06T03:46:29.450Z,86.40
2018-05-06T03:48:56.944Z,86.00
2018-05-06T03:51:24.514Z,85.90
2018-05-06T03:53:52.766Z,85.60
2018-05-06T03:59:39.210Z,85.00
2018-05-06T04:05:13.775Z,85.00
2018-05-06T04:07:41.356Z,85.10
2018-05-06T04:10:08.841Z,85.50
2018-05-06T04:12:36.326Z,86.30
2018-05-06T04:15:03.870Z,86.90
2018-05-06T04:17:31.371Z,86.70
2018-05-06T04:19:58.857Z,87.00
2018-05-06T04:22:26.391Z,87.10
2018-05-06T04:24:54.654Z,87.10
2018-05-06T04:27:22.142Z,87.00
2018-05-06T04:29:49.718Z,87.10
2018-05-06T04:32:17.216Z,86.90
2018-05-06T04:34:44.706Z,86.80
2018-05-06T04:37:12.223Z,87.10
2018-05-06T04:39:39.711Z,86.90
2018-05-06T04:42:07.206Z,86.40
2018-05-06T04:44:35.506Z,86.20
2018-05-06T04:47:02.995Z,86.10
2018-05-06T04:49:30.479Z,86.30
2018-05-06T04:51:58.053Z,86.50
2018-05-06T04:54:26.310Z,87.80
2018-05-06T04:56:53.811Z,87.80
2018-05-06T04:59:21.346Z,87.50
2018-05-06T05:01:49.596Z,88.30
2018-05-06T05:04:17.087Z,87.70
2018-05-06T05:06:44.599Z,87.50
2018-05-06T05:09:12.085Z,86.60
2018-05-06T05:11:39.574Z,86.10
2018-05-06T05:14:07.859Z,86.00
2018-05-06T05:16:35.372Z,86.00
2018-05-06T05:19:02.866Z,85.40
2018-05-06T05:21:31.218Z,84.90
2018-05-06T05:23:58.740Z,84.80
2018-05-06T05:26:26.227Z,84.70
2018-05-06T05:28:53.770Z,84.30
2018-05-06T05:31:21.270Z,83.80
2018-05-06T05:33:48.762Z,82.40
2018-05-06T05:36:16.272Z,81.60
2018-05-06T05:38:43.761Z,80.40
2018-05-06T05:41:12.024Z,76.70
2018-05-06T05:43:39.591Z,76.60
2018-05-06T05:46:07.078Z,75.80
2018-05-06T05:48:35.326Z,74.00
2018-05-06T05:51:02.860Z,74.00
2018-05-06T05:53:30.350Z,73.60
2018-05-06T05:55:57.839Z,72.80
2018-05-06T05:58:25.354Z,71.00
2018-05-06T06:00:52.849Z,69.30
2018-05-06T06:03:20.348Z,69.00
2018-05-06T06:05:47.921Z,69.40
2018-05-06T06:08:15.414Z,69.90
2018-05-06T06:10:42.897Z,69.80
2018-05-06T06:13:11.183Z,69.00
2018-05-06T06:15:38.761Z,68.90
2018-05-06T06:18:06.175Z,68.50
2018-05-06T06:20:33.706Z,67.60
2018-05-06T06:23:01.188Z,65.60
2018-05-06T06:25:28.685Z,64.70
2018-05-06T06:27:57.086Z,65.00
2018-05-06T06:30:24.579Z,64.30
2018-05-06T06:32:52.109Z,62.40
2018-05-06T06:35:19.647Z,62.00
2018-05-06T06:37:47.912Z,61.30
2018-05-06T06:40:15.395Z,60.00
2018-05-06T06:42:42.910Z,58.80
2018-05-06T06:45:10.406Z,57.70
2018-05-06T06:47:37.899Z,56.70
2018-05-06T06:50:05.429Z,55.90
2018-05-06T06:52:32.919Z,55.50
2018-05-06T06:55:01.184Z,54.20
2018-05-06T06:57:28.730Z,54.10
2018-05-06T06:59:56.218Z,54.50
2018-05-06T07:02:24.474Z,54.50
2018-05-06T07:04:51.991Z,53.90
2018-05-06T07:07:19.482Z,52.60
2018-05-06T07:09:46.982Z,53.10
2018-05-06T07:12:15.308Z,54.00
2018-05-06T07:14:42.806Z,54.00
2018-05-06T07:17:10.294Z,54.10
2018-05-06T07:19:37.819Z,53.70
2018-05-06T07:22:05.319Z,54.30
2018-05-06T07:24:32.814Z,53.20
2018-05-06T07:27:00.335Z,51.90
2018-05-06T07:29:27.833Z,51.60
2018-05-06T07:31:55.334Z,51.70
2018-05-06T07:34:23.682Z,51.90
2018-05-06T07:36:51.830Z,51.80
2018-05-06T07:39:19.359Z,52.30
2018-05-06T07:41:46.931Z,51.20
2018-05-06T07:44:14.430Z,50.60
2018-05-06T07:46:41.931Z,50.90
2018-05-06T07:49:09.455Z,51.10
2018-05-06T07:51:36.942Z,51.10
2018-05-06T07:54:04.441Z,50.60
2018-05-06T07:56:31.966Z,50.80
2018-05-06T07:58:59.461Z,50.50
2018-05-06T08:01:26.943Z,50.40
2018-05-06T08:03:55.432Z,50.40
2018-05-06T08:06:22.935Z,50.00
2018-05-06T08:08:50.431Z,49.80
2018-05-06T08:11:17.980Z,49.20
2018-05-06T08:13:45.486Z,49.10
2018-05-06T08:16:13.066Z,48.80
2018-05-06T08:18:40.544Z,48.70
2018-05-06T08:21:08.040Z,48.60
2018-05-06T08:23:35.543Z,48.60
2018-05-06T08:26:03.058Z,48.00
2018-05-06T08:28:30.547Z,47.60
2018-05-06T08:30:58.072Z,47.30
2018-05-06T08:33:25.618Z,47.00
2018-05-06T08:35:53.301Z,46.90
2018-05-06T08:38:21.191Z,46.60
2018-05-06T08:40:48.746Z,46.50
2018-05-06T08:43:16.245Z,46.40
2018-05-06T08:45:43.754Z,46.00
2018-05-06T08:48:11.276Z,45.60
2018-05-06T08:50:38.784Z,45.20
2018-05-06T08:53:06.279Z,44.30
2018-05-06T08:55:33.827Z,43.70
2018-05-06T08:58:01.316Z,43.60
2018-05-06T09:00:29.577Z,42.70
2018-05-06T09:02:57.107Z,42.20
2018-05-06T09:05:25.366Z,41.80
2018-05-06T09:07:52.894Z,41.70
2018-05-06T09:10:21.205Z,41.20
2018-05-06T09:12:48.695Z,41.20
2018-05-06T09:15:16.195Z,41.30
2018-05-06T09:17:43.739Z,41.20
2018-05-06T09:20:11.234Z,40.90
2018-05-06T09:22:38.730Z,41.10
2018-05-06T09:25:06.310Z,40.70
2018-05-06T09:27:33.811Z,40.60
2018-05-06T09:30:01.307Z,40.40
2018-05-06T09:32:28.850Z,40.00
2018-05-06T09:34:56.350Z,39.80
2018-05-06T09:37:23.842Z,39.60
2018-05-06T09:39:51.376Z,39.40
2018-05-06T09:42:18.885Z,39.70
2018-05-06T09:44:46.404Z,39.20
2018-05-06T09:47:13.983Z,38.90
2018-05-06T09:49:41.487Z,38.80
2018-05-06T09:52:08.979Z,38.40
2018-05-06T09:54:36.526Z,38.00
2018-05-06T09:57:04.023Z,37.80
2018-05-06T09:59:32.302Z,37.60
2018-05-06T10:01:59.839Z,37.70
2018-05-06T10:04:27.339Z,37.20
2018-05-06T10:06:55.599Z,37.10
2018-05-06T10:09:23.127Z,37.10
2018-05-06T10:11:50.623Z,36.80
2018-05-06T10:14:18.883Z,36.00
2018-05-06T10:16:46.458Z,36.00
2018-05-06T10:19:14.714Z,36.50
2018-05-06T10:21:42.218Z,36.40
2018-05-06T10:24:09.750Z,36.40
2018-05-06T10:26:37.242Z,36.30
2018-05-06T10:29:04.751Z,36.20
2018-05-06T10:31:32.294Z,35.70
2018-05-06T10:33:59.799Z,36.00
2018-05-06T10:36:27.298Z,35.70
2018-05-06T10:38:54.814Z,35.50
2018-05-06T10:41:22.306Z,35.50
2018-05-06T10:43:49.807Z,36.10
2018-05-06T10:46:17.328Z,35.50
2018-05-06T10:48:44.827Z,35.00
2018-05-06T10:51:12.340Z,34.70
2018-05-06T10:53:39.903Z,34.30
2018-05-06T10:56:07.406Z,33.90
2018-05-06T10:58:34.902Z,33.70
2018-05-06T11:01:02.451Z,33.90
2018-05-06T11:03:29.951Z,33.30
2018-05-06T11:05:57.450Z,33.00
2018-05-06T11:08:24.979Z,33.00
2018-05-06T11:10:52.483Z,31.90
2018-05-06T11:13:19.979Z,31.50
2018-05-06T11:15:47.510Z,32.60
2018-05-06T11:18:15.003Z,33.40
2018-05-06T11:20:42.504Z,34.10
2018-05-06T11:23:10.047Z,34.00
2018-05-06T11:25:37.539Z,34.00
2018-05-06T11:28:05.031Z,34.20
2018-05-06T11:30:32.559Z,34.30
2018-05-06T11:33:00.050Z,34.60
2018-05-06T11:35:27.544Z,34.60
2018-05-06T11:37:55.058Z,34.70
2018-05-06T11:40:22.557Z,34.90
2018-05-06T11:42:50.043Z,34.90
2018-05-06T11:45:17.582Z,35.00
2018-05-06T11:47:45.075Z,34.80
2018-05-06T11:50:12.566Z,34.70
2018-05-06T11:52:40.095Z,34.50
2018-05-06T11:55:07.601Z,35.00
2018-05-06T11:57:35.862Z,35.30
2018-05-06T12:00:03.599Z,35.30
2018-05-06T12:02:31.094Z,35.40
2018-05-06T12:04:58.588Z,35.40
2018-05-06T12:07:26.139Z,35.00
2018-05-06T12:09:53.714Z,35.00
2018-05-06T12:12:21.211Z,34.80
2018-05-06T12:14:48.711Z,34.70
2018-05-06T12:17:16.207Z,34.30
2018-05-06T12:19:43.719Z,34.30
2018-05-06T12:22:12.062Z,33.90
2018-05-06T12:24:39.550Z,33.90
2018-05-06T12:27:07.041Z,33.90
2018-05-06T12:29:34.583Z,34.30
2018-05-06T12:32:02.857Z,33.20
2018-05-06T12:34:31.127Z,33.00
2018-05-06T12:36:58.650Z,32.90
2018-05-06T12:39:26.155Z,33.00
2018-05-06T12:41:54.425Z,32.70
2018-05-06T12:44:21.946Z,32.80
2018-05-06T12:46:49.438Z,32.50
2018-05-06T12:49:16.939Z,32.60
2018-05-06T12:51:44.486Z,32.60
2018-05-06T12:54:11.978Z,32.80
2018-05-06T12:56:39.475Z,32.30
2018-05-06T12:59:07.046Z,32.40
2018-05-06T13:01:34.549Z,32.20
2018-05-06T13:04:02.045Z,32.20
2018-05-06T13:06:29.568Z,32.00
2018-05-06T13:08:57.065Z,31.70
2018-05-06T13:11:24.630Z,31.50
2018-05-06T13:13:52.122Z,31.30
2018-05-06T13:16:20.379Z,30.70
2018-05-06T13:18:47.877Z,30.70
2018-05-06T13:21:15.442Z,30.80
2018-05-06T13:23:42.941Z,31.10
2018-05-06T13:26:10.442Z,31.30
2018-05-06T13:28:37.991Z,31.20
2018-05-06T13:31:05.486Z,31.40
2018-05-06T13:33:32.998Z,30.90
2018-05-06T13:36:00.594Z,31.10
2018-05-06T13:38:28.859Z,31.70
2018-05-06T13:40:57.126Z,31.50
2018-05-06T13:43:24.735Z,31.40
2018-05-06T13:45:52.230Z,31.40
2018-05-06T13:48:19.717Z,31.50
2018-05-06T13:50:47.383Z,31.70
2018-05-06T13:53:15.647Z,31.90
2018-05-06T13:55:43.138Z,31.90
2018-05-06T13:58:10.691Z,32.20
2018-05-06T14:00:38.946Z,32.10
2018-05-06T14:03:06.450Z,32.10
2018-05-06T14:05:33.962Z,32.20
2018-05-06T14:08:01.454Z,32.20
2018-05-06T14:10:29.706Z,32.30
2018-05-06T14:12:57.279Z,32.30
2018-05-06T14:15:25.547Z,32.70
2018-05-06T14:17:53.035Z,32.70
2018-05-06T14:20:20.587Z,33.30
2018-05-06T14:22:48.862Z,33.80
2018-05-06T14:25:16.635Z,33.80
2018-05-06T14:27:44.187Z,33.80
2018-05-06T14:30:11.774Z,33.80
2018-05-06T14:32:39.199Z,34.00
2018-05-06T14:35:06.727Z,33.80
2018-05-06T14:37:34.254Z,33.70
2018-05-06T14:40:01.758Z,33.70
2018-05-06T14:42:29.342Z,33.50
2018-05-06T14:44:56.848Z,33.60
2018-05-06T14:47:36.153Z,33.90
2018-05-06T14:50:04.411Z,33.10
2018-05-06T14:52:31.902Z,33.00
2018-05-06T14:54:59.431Z,33.00
2018-05-06T14:57:26.929Z,33.00
2018-05-06T14:59:54.427Z,33.00
2018-05-06T15:02:21.991Z,32.90
2018-05-06T15:04:49.486Z,32.80
2018-05-06T15:07:16.982Z,32.90
2018-05-06T15:09:44.522Z,33.30
2018-05-06T15:12:14.703Z,33.90
2018-05-06T15:14:42.206Z,33.80
2018-05-06T15:17:10.493Z,34.10
2018-05-06T15:19:38.009Z,34.10
2018-05-06T15:22:05.515Z,34.00
2018-05-06T15:24:33.331Z,33.40
2018-05-06T15:27:00.832Z,32.60
2018-05-06T15:29:28.334Z,32.50
2018-05-06T15:31:55.878Z,32.60
2018-05-06T15:34:23.372Z,32.60
2018-05-06T15:36:50.861Z,32.90
2018-05-06T15:39:19.155Z,31.20
2018-05-06T15:41:46.648Z,31.20
2018-05-06T15:44:14.143Z,30.10
2018-05-06T15:46:41.726Z,29.60
2018-05-06T15:49:09.223Z,29.20
2018-05-06T15:51:36.719Z,28.40
2018-05-06T15:54:04.266Z,28.20
2018-05-06T15:56:31.759Z,27.50
2018-05-06T15:59:00.041Z,27.10
2018-05-06T16:01:27.594Z,27.10
2018-05-06T16:04:06.799Z,26.90
2018-05-06T16:06:34.411Z,26.60
2018-05-06T16:09:01.846Z,26.20
2018-05-06T16:11:29.347Z,26.30
2018-05-06T16:13:56.925Z,26.50
2018-05-06T16:16:24.415Z,26.60
2018-05-06T16:18:51.912Z,26.70
2018-05-06T16:21:19.458Z,26.70
2018-05-06T16:23:46.957Z,26.20
2018-05-06T16:26:14.451Z,25.90
2018-05-06T16:28:41.977Z,25.70
